sensor_id;sensor_type;location;lat;lon;timestamp;temperature;humidity
19039;DHT22;9652;49.014;12.052;2022-10-23T00:01:44;16.10;78.00
19039;DHT22;9652;49.014;12.052;2022-10-23T00:04:14;16.10;77.90
19039;DHT22;9652;49.014;12.052;2022-10-23T00:06:44;16.10;78.00
19039;DHT22;9652;49.014;12.052;2022-10-23T00:09:13;16.10;77.90
19039;DHT22;9652;49.014;12.052;2022-10-23T00:11:43;16.10;77.90
19039;DHT22;9652;49.014;12.052;2022-10-23T00:14:13;16.10;77.80
19039;DHT22;9652;49.014;12.052;2022-10-23T00:16:42;16.10;77.90
19039;DHT22;9652;49.014;12.052;2022-10-23T00:19:09;16.10;77.80
19039;DHT22;9652;49.014;12.052;2022-10-23T00:21:37;16.10;77.80
19039;DHT22;9652;49.014;12.052;2022-10-23T00:24:05;16.10;77.80
19039;DHT22;9652;49.014;12.052;2022-10-23T00:26:33;16.10;77.80
19039;DHT22;9652;49.014;12.052;2022-10-23T00:29:00;16.10;77.80
19039;DHT22;9652;49.014;12.052;2022-10-23T00:31:27;16.10;77.70
19039;DHT22;9652;49.014;12.052;2022-10-23T00:33:56;16.10;77.70
19039;DHT22;9652;49.014;12.052;2022-10-23T00:36:23;16.00;77.70
19039;DHT22;9652;49.014;12.052;2022-10-23T00:38:50;16.10;77.70
19039;DHT22;9652;49.014;12.052;2022-10-23T00:41:19;16.10;77.60
19039;DHT22;9652;49.014;12.052;2022-10-23T00:43:58;16.10;77.70
19039;DHT22;9652;49.014;12.052;2022-10-23T00:46:28;16.10;77.80
19039;DHT22;9652;49.014;12.052;2022-10-23T00:48:57;16.10;77.60
19039;DHT22;9652;49.014;12.052;2022-10-23T00:51:28;16.10;77.60
19039;DHT22;9652;49.014;12.052;2022-10-23T00:53:59;16.10;77.70
19039;DHT22;9652;49.014;12.052;2022-10-23T00:56:30;16.10;77.70
19039;DHT22;9652;49.014;12.052;2022-10-23T00:59:00;16.10;77.70
19039;DHT22;9652;49.014;12.052;2022-10-23T01:01:27;16.10;77.60
19039;DHT22;9652;49.014;12.052;2022-10-23T01:03:54;16.10;78.30
19039;DHT22;9652;49.014;12.052;2022-10-23T01:06:30;16.10;77.50
19039;DHT22;9652;49.014;12.052;2022-10-23T01:09:09;16.10;77.60
19039;DHT22;9652;49.014;12.052;2022-10-23T01:11:44;16.00;77.60
19039;DHT22;9652;49.014;12.052;2022-10-23T01:14:22;16.10;77.70
19039;DHT22;9652;49.014;12.052;2022-10-23T01:17:02;16.00;77.70
19039;DHT22;9652;49.014;12.052;2022-10-23T01:19:50;16.00;77.50
19039;DHT22;9652;49.014;12.052;2022-10-23T01:22:45;16.00;77.40
19039;DHT22;9652;49.014;12.052;2022-10-23T01:25:29;16.10;77.50
19039;DHT22;9652;49.014;12.052;2022-10-23T01:28:19;16.00;77.30
19039;DHT22;9652;49.014;12.052;2022-10-23T01:30:53;15.90;77.20
19039;DHT22;9652;49.014;12.052;2022-10-23T01:33:32;15.90;77.20
19039;DHT22;9652;49.014;12.052;2022-10-23T01:36:05;15.90;77.30
19039;DHT22;9652;49.014;12.052;2022-10-23T01:38:41;15.90;77.20
19039;DHT22;9652;49.014;12.052;2022-10-23T01:41:20;15.80;77.30
19039;DHT22;9652;49.014;12.052;2022-10-23T01:43:56;15.70;77.30
19039;DHT22;9652;49.014;12.052;2022-10-23T01:46:32;15.80;77.50
19039;DHT22;9652;49.014;12.052;2022-10-23T01:49:06;15.80;77.60
19039;DHT22;9652;49.014;12.052;2022-10-23T01:51:37;15.80;77.80
19039;DHT22;9652;49.014;12.052;2022-10-23T01:54:10;15.80;78.00
19039;DHT22;9652;49.014;12.052;2022-10-23T01:56:44;15.80;78.00
19039;DHT22;9652;49.014;12.052;2022-10-23T01:59:18;15.80;78.10
19039;DHT22;9652;49.014;12.052;2022-10-23T02:01:51;15.80;78.30
19039;DHT22;9652;49.014;12.052;2022-10-23T02:04:24;15.80;78.30
19039;DHT22;9652;49.014;12.052;2022-10-23T02:06:56;15.80;78.30
19039;DHT22;9652;49.014;12.052;2022-10-23T02:09:23;15.80;78.20
19039;DHT22;9652;49.014;12.052;2022-10-23T02:11:53;15.80;78.20
19039;DHT22;9652;49.014;12.052;2022-10-23T02:14:36;15.80;78.30
19039;DHT22;9652;49.014;12.052;2022-10-23T02:17:13;15.80;78.30
19039;DHT22;9652;49.014;12.052;2022-10-23T02:19:49;15.80;78.20
19039;DHT22;9652;49.014;12.052;2022-10-23T02:22:27;15.90;78.30
19039;DHT22;9652;49.014;12.052;2022-10-23T02:25:00;15.80;78.20
19039;DHT22;9652;49.014;12.052;2022-10-23T02:27:37;15.80;78.30
19039;DHT22;9652;49.014;12.052;2022-10-23T02:30:12;15.80;78.20
19039;DHT22;9652;49.014;12.052;2022-10-23T02:32:49;15.90;78.20
19039;DHT22;9652;49.014;12.052;2022-10-23T02:35:20;15.90;78.10
19039;DHT22;9652;49.014;12.052;2022-10-23T02:37:56;15.90;78.10
19039;DHT22;9652;49.014;12.052;2022-10-23T02:40:31;15.90;78.10
19039;DHT22;9652;49.014;12.052;2022-10-23T02:43:09;15.90;78.30
19039;DHT22;9652;49.014;12.052;2022-10-23T02:45:49;15.90;78.30
19039;DHT22;9652;49.014;12.052;2022-10-23T02:48:22;15.90;78.40
19039;DHT22;9652;49.014;12.052;2022-10-23T02:51:05;15.90;78.10
19039;DHT22;9652;49.014;12.052;2022-10-23T02:53:43;15.90;78.00
19039;DHT22;9652;49.014;12.052;2022-10-23T02:56:23;15.90;77.80
19039;DHT22;9652;49.014;12.052;2022-10-23T02:58:59;15.90;77.70
19039;DHT22;9652;49.014;12.052;2022-10-23T03:01:38;15.90;77.70
19039;DHT22;9652;49.014;12.052;2022-10-23T03:04:14;15.90;77.70
19039;DHT22;9652;49.014;12.052;2022-10-23T03:06:43;15.90;77.70
19039;DHT22;9652;49.014;12.052;2022-10-23T03:09:15;15.80;77.50
19039;DHT22;9652;49.014;12.052;2022-10-23T03:11:42;15.80;77.50
19039;DHT22;9652;49.014;12.052;2022-10-23T03:14:10;15.80;77.40
19039;DHT22;9652;49.014;12.052;2022-10-23T03:16:40;15.80;77.40
19039;DHT22;9652;49.014;12.052;2022-10-23T03:19:08;15.80;77.50
19039;DHT22;9652;49.014;12.052;2022-10-23T03:21:36;15.80;77.50
19039;DHT22;9652;49.014;12.052;2022-10-23T03:24:07;15.80;77.60
19039;DHT22;9652;49.014;12.052;2022-10-23T03:26:39;15.80;77.70
19039;DHT22;9652;49.014;12.052;2022-10-23T03:29:06;15.80;77.70
19039;DHT22;9652;49.014;12.052;2022-10-23T03:31:41;15.80;77.80
19039;DHT22;9652;49.014;12.052;2022-10-23T03:34:08;15.80;77.80
19039;DHT22;9652;49.014;12.052;2022-10-23T03:36:38;15.80;77.80
19039;DHT22;9652;49.014;12.052;2022-10-23T03:39:08;15.80;77.80
19039;DHT22;9652;49.014;12.052;2022-10-23T03:41:35;15.80;77.80
19039;DHT22;9652;49.014;12.052;2022-10-23T03:44:02;15.80;77.80
19039;DHT22;9652;49.014;12.052;2022-10-23T03:46:30;15.80;77.80
19039;DHT22;9652;49.014;12.052;2022-10-23T03:48:58;15.80;77.60
19039;DHT22;9652;49.014;12.052;2022-10-23T03:51:26;15.80;77.50
19039;DHT22;9652;49.014;12.052;2022-10-23T03:53:53;15.80;77.40
19039;DHT22;9652;49.014;12.052;2022-10-23T03:56:21;15.80;77.20
19039;DHT22;9652;49.014;12.052;2022-10-23T03:58:48;15.80;77.20
19039;DHT22;9652;49.014;12.052;2022-10-23T04:01:15;15.70;77.20
19039;DHT22;9652;49.014;12.052;2022-10-23T04:03:44;15.70;77.20
19039;DHT22;9652;49.014;12.052;2022-10-23T04:06:14;15.70;77.20
19039;DHT22;9652;49.014;12.052;2022-10-23T04:08:42;15.70;77.20
19039;DHT22;9652;49.014;12.052;2022-10-23T04:11:18;15.70;77.10
19039;DHT22;9652;49.014;12.052;2022-10-23T04:13:45;15.70;76.90
19039;DHT22;9652;49.014;12.052;2022-10-23T04:16:13;15.60;76.60
19039;DHT22;9652;49.014;12.052;2022-10-23T04:18:41;15.60;76.70
19039;DHT22;9652;49.014;12.052;2022-10-23T04:21:09;15.60;76.80
19039;DHT22;9652;49.014;12.052;2022-10-23T04:23:39;15.60;76.90
19039;DHT22;9652;49.014;12.052;2022-10-23T04:26:15;15.60;77.00
19039;DHT22;9652;49.014;12.052;2022-10-23T04:28:42;15.50;76.80
19039;DHT22;9652;49.014;12.052;2022-10-23T04:31:10;15.50;76.80
19039;DHT22;9652;49.014;12.052;2022-10-23T04:33:39;15.50;76.80
19039;DHT22;9652;49.014;12.052;2022-10-23T04:36:07;15.50;76.80
19039;DHT22;9652;49.014;12.052;2022-10-23T04:38:35;15.40;76.60
19039;DHT22;9652;49.014;12.052;2022-10-23T04:41:06;15.40;76.60
19039;DHT22;9652;49.014;12.052;2022-10-23T04:43:33;15.40;76.70
19039;DHT22;9652;49.014;12.052;2022-10-23T04:46:02;15.40;76.70
19039;DHT22;9652;49.014;12.052;2022-10-23T04:48:29;15.40;76.80
19039;DHT22;9652;49.014;12.052;2022-10-23T04:51:15;15.40;76.70
19039;DHT22;9652;49.014;12.052;2022-10-23T04:53:53;15.30;76.60
19039;DHT22;9652;49.014;12.052;2022-10-23T04:56:39;15.40;76.50
19039;DHT22;9652;49.014;12.052;2022-10-23T04:59:11;15.30;76.40
19039;DHT22;9652;49.014;12.052;2022-10-23T05:01:40;15.30;76.30
19039;DHT22;9652;49.014;12.052;2022-10-23T05:04:08;15.20;76.20
19039;DHT22;9652;49.014;12.052;2022-10-23T05:06:54;15.20;76.20
19039;DHT22;9652;49.014;12.052;2022-10-23T05:09:40;15.20;76.30
19039;DHT22;9652;49.014;12.052;2022-10-23T05:12:38;15.20;76.40
19039;DHT22;9652;49.014;12.052;2022-10-23T05:15:06;15.10;76.40
19039;DHT22;9652;49.014;12.052;2022-10-23T05:17:34;15.10;76.50
19039;DHT22;9652;49.014;12.052;2022-10-23T05:20:09;15.10;76.60
19039;DHT22;9652;49.014;12.052;2022-10-23T05:22:42;15.10;76.80
19039;DHT22;9652;49.014;12.052;2022-10-23T05:25:13;15.10;76.90
19039;DHT22;9652;49.014;12.052;2022-10-23T05:27:48;15.10;76.90
19039;DHT22;9652;49.014;12.052;2022-10-23T05:30:15;15.10;77.00
19039;DHT22;9652;49.014;12.052;2022-10-23T05:32:43;15.10;77.10
19039;DHT22;9652;49.014;12.052;2022-10-23T05:35:15;15.20;78.10
19039;DHT22;9652;49.014;12.052;2022-10-23T05:37:50;15.10;77.40
19039;DHT22;9652;49.014;12.052;2022-10-23T05:40:22;15.10;78.20
19039;DHT22;9652;49.014;12.052;2022-10-23T05:42:57;15.20;77.40
19039;DHT22;9652;49.014;12.052;2022-10-23T05:45:35;15.20;77.40
19039;DHT22;9652;49.014;12.052;2022-10-23T05:48:20;15.20;77.40
19039;DHT22;9652;49.014;12.052;2022-10-23T05:51:07;15.20;77.40
19039;DHT22;9652;49.014;12.052;2022-10-23T05:53:44;15.30;77.50
19039;DHT22;9652;49.014;12.052;2022-10-23T05:56:22;15.30;77.50
19039;DHT22;9652;49.014;12.052;2022-10-23T05:59:01;15.20;77.50
19039;DHT22;9652;49.014;12.052;2022-10-23T06:01:48;15.30;77.50
19039;DHT22;9652;49.014;12.052;2022-10-23T06:04:30;15.30;77.50
19039;DHT22;9652;49.014;12.052;2022-10-23T06:07:03;15.30;77.60
19039;DHT22;9652;49.014;12.052;2022-10-23T06:09:31;15.30;77.70
19039;DHT22;9652;49.014;12.052;2022-10-23T06:11:59;15.30;77.90
19039;DHT22;9652;49.014;12.052;2022-10-23T06:14:28;15.40;78.00
19039;DHT22;9652;49.014;12.052;2022-10-23T06:16:56;15.40;77.90
19039;DHT22;9652;49.014;12.052;2022-10-23T06:19:24;15.40;78.00
19039;DHT22;9652;49.014;12.052;2022-10-23T06:21:55;15.40;78.00
19039;DHT22;9652;49.014;12.052;2022-10-23T06:24:32;15.40;77.90
19039;DHT22;9652;49.014;12.052;2022-10-23T06:27:02;15.50;77.80
19039;DHT22;9652;49.014;12.052;2022-10-23T06:29:41;15.50;77.70
19039;DHT22;9652;49.014;12.052;2022-10-23T06:32:08;15.50;77.70
19039;DHT22;9652;49.014;12.052;2022-10-23T06:34:36;15.50;77.80
19039;DHT22;9652;49.014;12.052;2022-10-23T06:37:06;15.50;77.70
19039;DHT22;9652;49.014;12.052;2022-10-23T06:39:44;15.60;78.50
19039;DHT22;9652;49.014;12.052;2022-10-23T06:42:34;15.60;77.70
19039;DHT22;9652;49.014;12.052;2022-10-23T06:45:20;15.60;77.70
19039;DHT22;9652;49.014;12.052;2022-10-23T06:48:10;15.60;77.70
19039;DHT22;9652;49.014;12.052;2022-10-23T06:50:57;15.60;77.70
19039;DHT22;9652;49.014;12.052;2022-10-23T06:53:34;15.70;77.70
19039;DHT22;9652;49.014;12.052;2022-10-23T06:56:14;15.70;77.60
19039;DHT22;9652;49.014;12.052;2022-10-23T06:58:42;15.70;77.50
19039;DHT22;9652;49.014;12.052;2022-10-23T07:01:15;15.70;77.50
19039;DHT22;9652;49.014;12.052;2022-10-23T07:03:44;15.70;77.40
19039;DHT22;9652;49.014;12.052;2022-10-23T07:06:11;15.70;77.30
19039;DHT22;9652;49.014;12.052;2022-10-23T07:08:39;15.80;77.50
19039;DHT22;9652;49.014;12.052;2022-10-23T07:11:32;15.80;77.70
19039;DHT22;9652;49.014;12.052;2022-10-23T07:14:00;15.80;77.70
19039;DHT22;9652;49.014;12.052;2022-10-23T07:16:29;15.80;77.60
19039;DHT22;9652;49.014;12.052;2022-10-23T07:18:58;15.90;77.40
19039;DHT22;9652;49.014;12.052;2022-10-23T07:21:28;15.90;77.20
19039;DHT22;9652;49.014;12.052;2022-10-23T07:24:23;15.90;77.20
19039;DHT22;9652;49.014;12.052;2022-10-23T07:26:52;16.00;77.30
19039;DHT22;9652;49.014;12.052;2022-10-23T07:29:22;16.00;77.30
19039;DHT22;9652;49.014;12.052;2022-10-23T07:31:50;16.10;77.40
19039;DHT22;9652;49.014;12.052;2022-10-23T07:34:36;16.10;77.30
19039;DHT22;9652;49.014;12.052;2022-10-23T07:37:17;16.10;77.20
19039;DHT22;9652;49.014;12.052;2022-10-23T07:39:46;16.10;77.10
19039;DHT22;9652;49.014;12.052;2022-10-23T07:42:13;16.20;77.10
19039;DHT22;9652;49.014;12.052;2022-10-23T07:44:41;16.20;77.10
19039;DHT22;9652;49.014;12.052;2022-10-23T07:47:10;16.30;76.90
19039;DHT22;9652;49.014;12.052;2022-10-23T07:49:41;16.30;76.60
19039;DHT22;9652;49.014;12.052;2022-10-23T07:52:08;16.30;76.60
19039;DHT22;9652;49.014;12.052;2022-10-23T07:54:55;16.40;76.40
19039;DHT22;9652;49.014;12.052;2022-10-23T07:57:24;16.40;76.20
19039;DHT22;9652;49.014;12.052;2022-10-23T08:00:02;16.40;76.20
19039;DHT22;9652;49.014;12.052;2022-10-23T08:02:40;16.50;76.30
19039;DHT22;9652;49.014;12.052;2022-10-23T08:05:09;16.40;76.20
19039;DHT22;9652;49.014;12.052;2022-10-23T08:07:47;16.50;76.00
19039;DHT22;9652;49.014;12.052;2022-10-23T08:10:16;16.40;75.50
19039;DHT22;9652;49.014;12.052;2022-10-23T08:12:44;16.50;75.40
19039;DHT22;9652;49.014;12.052;2022-10-23T08:15:12;16.60;75.50
19039;DHT22;9652;49.014;12.052;2022-10-23T08:17:54;16.40;75.50
19039;DHT22;9652;49.014;12.052;2022-10-23T08:20:37;16.50;75.60
19039;DHT22;9652;49.014;12.052;2022-10-23T08:23:05;16.50;75.70
19039;DHT22;9652;49.014;12.052;2022-10-23T08:25:33;16.50;75.80
19039;DHT22;9652;49.014;12.052;2022-10-23T08:28:00;16.50;75.80
19039;DHT22;9652;49.014;12.052;2022-10-23T08:30:29;16.60;75.80
19039;DHT22;9652;49.014;12.052;2022-10-23T08:32:58;16.50;75.50
19039;DHT22;9652;49.014;12.052;2022-10-23T08:35:25;16.50;75.30
19039;DHT22;9652;49.014;12.052;2022-10-23T08:37:53;16.60;75.30
19039;DHT22;9652;49.014;12.052;2022-10-23T08:40:23;16.60;75.40
19039;DHT22;9652;49.014;12.052;2022-10-23T08:43:33;16.60;75.20
19039;DHT22;9652;49.014;12.052;2022-10-23T08:46:18;16.60;75.00
19039;DHT22;9652;49.014;12.052;2022-10-23T08:49:33;16.60;75.20
19039;DHT22;9652;49.014;12.052;2022-10-23T08:52:13;16.60;74.90
19039;DHT22;9652;49.014;12.052;2022-10-23T08:54:55;16.70;75.00
19039;DHT22;9652;49.014;12.052;2022-10-23T08:57:27;16.70;75.00
19039;DHT22;9652;49.014;12.052;2022-10-23T09:00:03;16.70;75.20
19039;DHT22;9652;49.014;12.052;2022-10-23T09:02:35;16.70;75.40
19039;DHT22;9652;49.014;12.052;2022-10-23T09:05:12;16.80;75.50
19039;DHT22;9652;49.014;12.052;2022-10-23T09:07:49;16.80;75.50
19039;DHT22;9652;49.014;12.052;2022-10-23T09:10:36;16.90;75.30
19039;DHT22;9652;49.014;12.052;2022-10-23T09:13:48;16.90;75.20
19039;DHT22;9652;49.014;12.052;2022-10-23T09:16:41;17.00;74.80
19039;DHT22;9652;49.014;12.052;2022-10-23T09:19:18;17.00;75.20
19039;DHT22;9652;49.014;12.052;2022-10-23T09:21:50;17.10;75.50
19039;DHT22;9652;49.014;12.052;2022-10-23T09:24:20;17.10;75.30
19039;DHT22;9652;49.014;12.052;2022-10-23T09:26:50;17.20;75.40
19039;DHT22;9652;49.014;12.052;2022-10-23T09:29:23;17.30;75.30
19039;DHT22;9652;49.014;12.052;2022-10-23T09:31:53;17.30;75.20
19039;DHT22;9652;49.014;12.052;2022-10-23T09:34:23;17.30;75.00
19039;DHT22;9652;49.014;12.052;2022-10-23T09:36:55;17.40;74.80
19039;DHT22;9652;49.014;12.052;2022-10-23T09:39:27;17.40;74.60
19039;DHT22;9652;49.014;12.052;2022-10-23T09:41:57;17.40;74.60
19039;DHT22;9652;49.014;12.052;2022-10-23T09:44:28;17.50;74.70
19039;DHT22;9652;49.014;12.052;2022-10-23T09:46:59;17.50;74.60
19039;DHT22;9652;49.014;12.052;2022-10-23T09:49:39;17.60;74.50
19039;DHT22;9652;49.014;12.052;2022-10-23T09:52:22;17.60;74.40
19039;DHT22;9652;49.014;12.052;2022-10-23T09:54:56;17.70;73.80
19039;DHT22;9652;49.014;12.052;2022-10-23T09:57:29;17.70;74.10
19039;DHT22;9652;49.014;12.052;2022-10-23T10:00:05;17.70;74.00
19039;DHT22;9652;49.014;12.052;2022-10-23T10:02:43;17.70;74.10
19039;DHT22;9652;49.014;12.052;2022-10-23T10:05:38;17.80;74.30
19039;DHT22;9652;49.014;12.052;2022-10-23T10:08:25;17.80;74.30
19039;DHT22;9652;49.014;12.052;2022-10-23T10:11:01;17.80;74.40
19039;DHT22;9652;49.014;12.052;2022-10-23T10:13:53;17.90;74.50
19039;DHT22;9652;49.014;12.052;2022-10-23T10:16:50;18.00;74.40
19039;DHT22;9652;49.014;12.052;2022-10-23T10:19:35;18.10;74.50
19039;DHT22;9652;49.014;12.052;2022-10-23T10:22:23;18.20;74.20
19039;DHT22;9652;49.014;12.052;2022-10-23T10:25:02;18.30;74.10
19039;DHT22;9652;49.014;12.052;2022-10-23T10:27:44;18.40;74.30
19039;DHT22;9652;49.014;12.052;2022-10-23T10:30:18;18.50;74.20
19039;DHT22;9652;49.014;12.052;2022-10-23T10:32:51;18.60;74.40
19039;DHT22;9652;49.014;12.052;2022-10-23T10:35:25;18.70;75.00
19039;DHT22;9652;49.014;12.052;2022-10-23T10:41:29;18.90;73.30
19039;DHT22;9652;49.014;12.052;2022-10-23T10:47:13;19.10;72.60
19039;DHT22;9652;49.014;12.052;2022-10-23T10:49:56;19.20;72.70
19039;DHT22;9652;49.014;12.052;2022-10-23T10:52:47;19.20;72.40
19039;DHT22;9652;49.014;12.052;2022-10-23T10:55:25;19.30;72.40
19039;DHT22;9652;49.014;12.052;2022-10-23T10:58:02;19.40;73.10
19039;DHT22;9652;49.014;12.052;2022-10-23T11:00:36;19.40;73.40
19039;DHT22;9652;49.014;12.052;2022-10-23T11:03:10;19.60;73.70
19039;DHT22;9652;49.014;12.052;2022-10-23T11:05:49;19.70;73.60
19039;DHT22;9652;49.014;12.052;2022-10-23T11:08:19;19.80;72.30
19039;DHT22;9652;49.014;12.052;2022-10-23T11:10:57;19.90;71.60
19039;DHT22;9652;49.014;12.052;2022-10-23T11:13:34;19.90;70.90
19039;DHT22;9652;49.014;12.052;2022-10-23T11:16:08;19.90;70.80
19039;DHT22;9652;49.014;12.052;2022-10-23T11:18:41;19.90;70.50
19039;DHT22;9652;49.014;12.052;2022-10-23T11:21:21;19.90;70.80
19039;DHT22;9652;49.014;12.052;2022-10-23T11:27:25;19.90;70.40
19039;DHT22;9652;49.014;12.052;2022-10-23T11:30:14;19.70;70.10
19039;DHT22;9652;49.014;12.052;2022-10-23T11:36:12;19.90;70.70
19039;DHT22;9652;49.014;12.052;2022-10-23T11:38:44;20.00;71.30
19039;DHT22;9652;49.014;12.052;2022-10-23T11:41:18;20.00;71.30
19039;DHT22;9652;49.014;12.052;2022-10-23T11:43:49;20.00;70.70
19039;DHT22;9652;49.014;12.052;2022-10-23T11:46:33;20.00;70.90
19039;DHT22;9652;49.014;12.052;2022-10-23T11:49:03;20.10;70.30
19039;DHT22;9652;49.014;12.052;2022-10-23T11:51:44;20.20;71.40
19039;DHT22;9652;49.014;12.052;2022-10-23T11:54:23;20.30;71.70
19039;DHT22;9652;49.014;12.052;2022-10-23T11:57:09;20.30;71.10
19039;DHT22;9652;49.014;12.052;2022-10-23T11:59:50;20.50;70.90
19039;DHT22;9652;49.014;12.052;2022-10-23T12:02:26;20.60;70.70
19039;DHT22;9652;49.014;12.052;2022-10-23T12:05:00;20.70;70.70
19039;DHT22;9652;49.014;12.052;2022-10-23T12:07:32;20.80;70.50
19039;DHT22;9652;49.014;12.052;2022-10-23T12:10:03;20.80;69.80
19039;DHT22;9652;49.014;12.052;2022-10-23T12:12:34;20.90;69.40
19039;DHT22;9652;49.014;12.052;2022-10-23T12:15:16;20.80;69.10
19039;DHT22;9652;49.014;12.052;2022-10-23T12:17:48;20.80;69.00
19039;DHT22;9652;49.014;12.052;2022-10-23T12:20:37;20.80;69.00
19039;DHT22;9652;49.014;12.052;2022-10-23T12:23:36;20.70;69.20
19039;DHT22;9652;49.014;12.052;2022-10-23T12:26:20;20.80;69.50
19039;DHT22;9652;49.014;12.052;2022-10-23T12:29:00;20.80;69.50
19039;DHT22;9652;49.014;12.052;2022-10-23T12:31:42;20.90;69.20
19039;DHT22;9652;49.014;12.052;2022-10-23T12:34:27;20.90;68.70
19039;DHT22;9652;49.014;12.052;2022-10-23T12:37:23;20.90;68.60
19039;DHT22;9652;49.014;12.052;2022-10-23T12:40:01;20.80;68.80
19039;DHT22;9652;49.014;12.052;2022-10-23T12:42:32;20.80;69.50
19039;DHT22;9652;49.014;12.052;2022-10-23T12:45:02;20.90;69.80
19039;DHT22;9652;49.014;12.052;2022-10-23T12:47:42;20.90;69.70
19039;DHT22;9652;49.014;12.052;2022-10-23T12:50:18;20.90;69.50
19039;DHT22;9652;49.014;12.052;2022-10-23T12:52:53;21.00;68.90
19039;DHT22;9652;49.014;12.052;2022-10-23T12:55:24;21.00;68.90
19039;DHT22;9652;49.014;12.052;2022-10-23T12:57:52;21.00;69.10
19039;DHT22;9652;49.014;12.052;2022-10-23T13:00:22;21.00;68.80
19039;DHT22;9652;49.014;12.052;2022-10-23T13:02:57;21.00;68.60
19039;DHT22;9652;49.014;12.052;2022-10-23T13:05:27;21.00;68.40
19039;DHT22;9652;49.014;12.052;2022-10-23T13:07:56;21.00;68.80
19039;DHT22;9652;49.014;12.052;2022-10-23T13:10:38;21.00;68.90
19039;DHT22;9652;49.014;12.052;2022-10-23T13:13:10;21.00;68.90
19039;DHT22;9652;49.014;12.052;2022-10-23T13:15:41;21.00;68.80
19039;DHT22;9652;49.014;12.052;2022-10-23T13:18:10;21.00;68.90
19039;DHT22;9652;49.014;12.052;2022-10-23T13:20:42;21.00;68.90
19039;DHT22;9652;49.014;12.052;2022-10-23T13:23:27;21.10;68.70
19039;DHT22;9652;49.014;12.052;2022-10-23T13:25:58;21.10;68.70
19039;DHT22;9652;49.014;12.052;2022-10-23T13:28:27;21.10;68.70
19039;DHT22;9652;49.014;12.052;2022-10-23T13:31:06;21.10;68.60
19039;DHT22;9652;49.014;12.052;2022-10-23T13:34:02;21.10;68.30
19039;DHT22;9652;49.014;12.052;2022-10-23T13:37:01;21.10;68.40
19039;DHT22;9652;49.014;12.052;2022-10-23T13:39:31;21.10;67.90
19039;DHT22;9652;49.014;12.052;2022-10-23T13:42:08;21.10;68.20
19039;DHT22;9652;49.014;12.052;2022-10-23T13:44:38;21.10;68.30
19039;DHT22;9652;49.014;12.052;2022-10-23T13:47:10;21.10;68.40
19039;DHT22;9652;49.014;12.052;2022-10-23T13:49:38;21.10;68.20
19039;DHT22;9652;49.014;12.052;2022-10-23T13:52:11;21.10;68.40
19039;DHT22;9652;49.014;12.052;2022-10-23T13:54:40;21.10;68.30
19039;DHT22;9652;49.014;12.052;2022-10-23T13:57:11;21.10;68.60
19039;DHT22;9652;49.014;12.052;2022-10-23T13:59:40;21.10;68.40
19039;DHT22;9652;49.014;12.052;2022-10-23T14:02:16;21.10;68.50
19039;DHT22;9652;49.014;12.052;2022-10-23T14:04:45;21.10;68.30
19039;DHT22;9652;49.014;12.052;2022-10-23T14:07:14;21.10;68.60
19039;DHT22;9652;49.014;12.052;2022-10-23T14:09:41;21.10;68.60
19039;DHT22;9652;49.014;12.052;2022-10-23T14:12:08;21.10;68.60
19039;DHT22;9652;49.014;12.052;2022-10-23T14:14:36;21.10;68.60
19039;DHT22;9652;49.014;12.052;2022-10-23T14:17:04;21.10;68.50
19039;DHT22;9652;49.014;12.052;2022-10-23T14:19:32;21.10;68.40
19039;DHT22;9652;49.014;12.052;2022-10-23T14:21:59;21.10;68.20
19039;DHT22;9652;49.014;12.052;2022-10-23T14:24:28;21.10;68.00
19039;DHT22;9652;49.014;12.052;2022-10-23T14:26:55;21.10;67.80
19039;DHT22;9652;49.014;12.052;2022-10-23T14:29:24;21.10;67.60
19039;DHT22;9652;49.014;12.052;2022-10-23T14:31:51;21.10;67.60
19039;DHT22;9652;49.014;12.052;2022-10-23T14:34:18;21.00;67.50
19039;DHT22;9652;49.014;12.052;2022-10-23T14:36:46;21.00;67.60
19039;DHT22;9652;49.014;12.052;2022-10-23T14:39:13;21.00;67.70
19039;DHT22;9652;49.014;12.052;2022-10-23T14:41:41;21.00;67.90
19039;DHT22;9652;49.014;12.052;2022-10-23T14:44:08;21.00;67.80
19039;DHT22;9652;49.014;12.052;2022-10-23T14:46:36;21.00;68.00
19039;DHT22;9652;49.014;12.052;2022-10-23T14:49:03;20.90;68.00
19039;DHT22;9652;49.014;12.052;2022-10-23T14:51:30;20.90;68.00
19039;DHT22;9652;49.014;12.052;2022-10-23T14:53:58;20.90;67.90
19039;DHT22;9652;49.014;12.052;2022-10-23T14:56:28;20.90;67.70
19039;DHT22;9652;49.014;12.052;2022-10-23T14:58:58;20.90;67.60
19039;DHT22;9652;49.014;12.052;2022-10-23T15:01:28;20.80;67.50
19039;DHT22;9652;49.014;12.052;2022-10-23T15:03:55;20.80;67.40
19039;DHT22;9652;49.014;12.052;2022-10-23T15:06:22;20.80;67.50
19039;DHT22;9652;49.014;12.052;2022-10-23T15:08:50;20.70;67.40
19039;DHT22;9652;49.014;12.052;2022-10-23T15:11:20;20.70;67.50
19039;DHT22;9652;49.014;12.052;2022-10-23T15:13:47;20.70;67.50
19039;DHT22;9652;49.014;12.052;2022-10-23T15:16:16;20.60;67.50
19039;DHT22;9652;49.014;12.052;2022-10-23T15:18:43;20.50;67.50
19039;DHT22;9652;49.014;12.052;2022-10-23T15:21:11;20.50;67.70
19039;DHT22;9652;49.014;12.052;2022-10-23T15:23:40;20.40;67.80
19039;DHT22;9652;49.014;12.052;2022-10-23T15:26:11;20.40;68.00
19039;DHT22;9652;49.014;12.052;2022-10-23T15:28:42;20.40;68.10
19039;DHT22;9652;49.014;12.052;2022-10-23T15:31:39;20.30;68.20
19039;DHT22;9652;49.014;12.052;2022-10-23T15:34:13;20.30;67.90
19039;DHT22;9652;49.014;12.052;2022-10-23T15:36:42;20.20;68.20
19039;DHT22;9652;49.014;12.052;2022-10-23T15:39:10;20.20;68.30
19039;DHT22;9652;49.014;12.052;2022-10-23T15:41:40;20.10;68.10
19039;DHT22;9652;49.014;12.052;2022-10-23T15:44:11;20.10;68.10
19039;DHT22;9652;49.014;12.052;2022-10-23T15:46:41;20.00;67.90
19039;DHT22;9652;49.014;12.052;2022-10-23T15:49:09;20.00;67.90
19039;DHT22;9652;49.014;12.052;2022-10-23T15:51:38;19.90;67.80
19039;DHT22;9652;49.014;12.052;2022-10-23T15:54:06;19.80;67.70
19039;DHT22;9652;49.014;12.052;2022-10-23T15:56:35;19.70;67.70
19039;DHT22;9652;49.014;12.052;2022-10-23T15:59:02;19.70;67.80
19039;DHT22;9652;49.014;12.052;2022-10-23T16:01:29;19.60;67.80
19039;DHT22;9652;49.014;12.052;2022-10-23T16:03:58;19.50;67.90
19039;DHT22;9652;49.014;12.052;2022-10-23T16:06:25;19.40;67.90
19039;DHT22;9652;49.014;12.052;2022-10-23T16:08:52;19.30;67.90
19039;DHT22;9652;49.014;12.052;2022-10-23T16:11:21;19.20;68.00
19039;DHT22;9652;49.014;12.052;2022-10-23T16:13:50;19.30;68.20
19039;DHT22;9652;49.014;12.052;2022-10-23T16:16:19;19.00;68.20
19039;DHT22;9652;49.014;12.052;2022-10-23T16:18:46;19.00;68.30
19039;DHT22;9652;49.014;12.052;2022-10-23T16:21:18;18.90;68.50
19039;DHT22;9652;49.014;12.052;2022-10-23T16:23:47;18.70;68.50
19039;DHT22;9652;49.014;12.052;2022-10-23T16:26:15;18.70;68.70